createdAt,value
2018-04-26T00:00:14.240Z,97380.95
2018-04-26T00:00:45.842Z,97375.02
2018-04-26T00:01:17.430Z,97376.30
2018-04-26T00:01:49.039Z,97377.60
2018-04-26T00:02:20.649Z,97374.62
2018-04-26T00:02:52.268Z,97378.06
2018-04-26T00:03:23.844Z,97377.64
2018-04-26T00:03:55.450Z,97379.77
2018-04-26T00:04:27.038Z,97376.41
2018-04-26T00:04:58.662Z,97382.81
2018-04-26T00:05:30.261Z,97376.02
2018-04-26T00:06:01.847Z,97373.00
2018-04-26T00:06:33.457Z,97368.31
2018-04-26T00:07:05.044Z,97373.86
2018-04-26T00:07:36.635Z,97365.32
2018-04-26T00:08:08.242Z,97366.18
2018-04-26T00:08:39.850Z,97363.63
2018-04-26T00:09:11.479Z,97358.08
2018-04-26T00:09:43.053Z,97359.80
2018-04-26T00:10:14.665Z,97359.38
2018-04-26T00:10:46.306Z,97358.13
2018-04-26T00:11:17.898Z,97365.78
2018-04-26T00:11:49.469Z,97355.56
2018-04-26T00:12:21.045Z,97361.54
2018-04-26T00:12:52.645Z,97357.34
2018-04-26T00:13:24.238Z,97360.31
2018-04-26T00:13:55.844Z,97359.89
2018-04-26T00:14:27.435Z,97359.48
2018-04-26T00:14:59.032Z,97359.13
2018-04-26T00:15:30.640Z,97363.73
2018-04-26T00:16:02.271Z,97364.17
2018-04-26T00:16:33.846Z,97368.88
2018-04-26T00:17:05.438Z,97368.03
2018-04-26T00:17:37.048Z,97364.27
2018-04-26T00:18:08.690Z,97367.19
2018-04-26T00:18:40.299Z,97371.03
2018-04-26T00:19:11.906Z,97370.17
2018-04-26T00:19:43.484Z,97361.69
2018-04-26T00:20:15.092Z,97366.80
2018-04-26T00:20:46.678Z,97361.69
2018-04-26T00:21:18.281Z,97359.56
2018-04-26T00:21:49.867Z,97358.29
2018-04-26T00:22:21.530Z,97352.31
2018-04-26T00:22:53.119Z,97350.61
2018-04-26T00:23:24.721Z,97351.89
2018-04-26T00:23:56.310Z,97349.77
2018-04-26T00:24:27.926Z,97350.21
2018-04-26T00:24:59.510Z,97351.93
2018-04-26T00:25:31.113Z,97346.81
2018-04-26T00:26:02.702Z,97347.67
2018-04-26T00:26:34.293Z,97350.23
2018-04-26T00:27:05.910Z,97352.38
2018-04-26T00:27:37.577Z,97352.00
2018-04-26T00:28:09.166Z,97356.63
2018-04-26T00:28:40.750Z,97356.20
2018-04-26T00:29:12.344Z,97354.93
2018-04-26T00:29:43.940Z,97354.55
2018-04-26T00:30:15.524Z,97363.50
2018-04-26T00:30:47.111Z,97349.87
2018-04-26T00:31:18.698Z,97358.38
2018-04-26T00:31:50.275Z,97360.95
2018-04-26T00:32:21.886Z,97359.26
2018-04-26T00:32:53.519Z,97359.77
2018-04-26T00:33:25.122Z,97360.53
2018-04-26T00:33:56.720Z,97361.81
2018-04-26T00:34:28.311Z,97358.00
2018-04-26T00:34:59.898Z,97352.88
2018-04-26T00:35:31.468Z,97359.70
2018-04-26T00:36:03.069Z,97359.72
2018-04-26T00:36:34.685Z,97358.02
2018-04-26T00:37:06.295Z,97354.66
2018-04-26T00:37:37.885Z,97360.20
2018-04-26T00:38:09.457Z,97352.53
2018-04-26T00:38:41.067Z,97348.28
2018-04-26T00:39:12.644Z,97350.44
2018-04-26T00:39:44.240Z,97357.67
2018-04-26T00:40:15.816Z,97356.87
2018-04-26T00:40:47.414Z,97355.97
2018-04-26T00:41:19.107Z,97355.19
2018-04-26T00:41:50.694Z,97359.81
2018-04-26T00:42:22.280Z,97347.87
2018-04-26T00:42:53.914Z,97350.44
2018-04-26T00:43:25.505Z,97355.97
2018-04-26T00:43:57.108Z,97354.33
2018-04-26T00:44:28.718Z,97354.74
2018-04-26T00:45:00.320Z,97355.60
2018-04-26T00:45:31.902Z,97351.77
2018-04-26T00:46:03.496Z,97365.00
2018-04-26T00:46:35.072Z,97359.48
2018-04-26T00:47:06.644Z,97358.18
2018-04-26T00:47:38.236Z,97361.18
2018-04-26T00:48:09.851Z,97364.58
2018-04-26T00:48:41.439Z,97367.57
2018-04-26T00:49:13.039Z,97365.44
2018-04-26T00:49:44.612Z,97371.39
2018-04-26T00:50:16.190Z,97362.02
2018-04-26T00:50:47.778Z,97364.59
2018-04-26T00:51:19.358Z,97364.59
2018-04-26T00:51:50.966Z,97362.89
2018-04-26T00:52:22.553Z,97365.03
2018-04-26T00:52:54.157Z,97361.18
2018-04-26T00:53:25.742Z,97363.30
2018-04-26T00:53:57.325Z,97365.84
2018-04-26T00:54:28.934Z,97370.09
2018-04-26T00:55:00.517Z,97370.04
2018-04-26T00:55:32.094Z,97367.92
2018-04-26T00:56:03.701Z,97370.48
2018-04-26T00:56:35.309Z,97369.63
2018-04-26T00:57:06.898Z,97373.88
2018-04-26T00:57:38.519Z,97372.18
2018-04-26T00:58:10.097Z,97371.32
2018-04-26T00:58:41.682Z,97383.22
2018-04-26T00:59:13.266Z,97376.81
2018-04-26T00:59:44.849Z,97379.33
2018-04-26T01:00:16.445Z,97378.45
2018-04-26T01:00:48.034Z,97375.45
2018-04-26T01:01:19.642Z,97377.56
2018-04-26T01:01:51.254Z,97373.73
2018-04-26T01:02:22.853Z,97374.17
2018-04-26T01:02:54.428Z,97374.17
2018-04-26T01:03:26.020Z,97372.09
2018-04-26T01:03:57.606Z,97375.45
2018-04-26T01:04:29.176Z,97379.28
2018-04-26T01:05:00.759Z,97377.15
2018-04-26T01:05:32.336Z,97377.19
2018-04-26T01:06:03.962Z,97369.34
2018-04-26T01:06:35.560Z,97382.33
2018-04-26T01:07:07.177Z,97378.03
2018-04-26T01:07:38.749Z,97380.16
2018-04-26T01:08:10.344Z,97386.56
2018-04-26T01:08:41.950Z,97378.53
2018-04-26T01:09:13.545Z,97383.58
2018-04-26T01:09:45.157Z,97381.45
2018-04-26T01:10:16.742Z,97387.84
2018-04-26T01:10:48.320Z,97386.14
2018-04-26T01:11:19.906Z,97383.58
2018-04-26T01:11:51.477Z,97386.14
2018-04-26T01:12:23.087Z,97387.42
2018-04-26T01:12:54.669Z,97384.00
2018-04-26T01:13:26.313Z,97381.45
2018-04-26T01:13:57.906Z,97376.34
2018-04-26T01:14:29.505Z,97378.48
2018-04-26T01:15:01.084Z,97375.58
2018-04-26T01:15:32.677Z,97384.86
2018-04-26T01:16:04.254Z,97385.72
2018-04-26T01:16:35.824Z,97386.16
2018-04-26T01:17:07.402Z,97382.33
2018-04-26T01:17:38.995Z,97387.05
2018-04-26T01:18:10.581Z,97384.49
2018-04-26T01:18:42.206Z,97382.74
2018-04-26T01:19:13.798Z,97377.26
2018-04-26T01:19:45.407Z,97378.14
2018-04-26T01:20:17.015Z,97373.88
2018-04-26T01:20:48.611Z,97383.25
2018-04-26T01:21:20.220Z,97376.86
2018-04-26T01:21:51.810Z,97369.58
2018-04-26T01:22:23.444Z,97372.56
2018-04-26T01:22:55.058Z,97363.61
2018-04-26T01:23:26.678Z,97362.77
2018-04-26T01:23:58.283Z,97362.78
2018-04-26T01:24:29.870Z,97363.20
2018-04-26T01:25:01.452Z,97362.78
2018-04-26T01:25:33.034Z,97364.02
2018-04-26T01:26:04.662Z,97361.95
2018-04-26T01:26:36.254Z,97364.92
2018-04-26T01:27:07.845Z,97361.52
2018-04-26T01:27:39.427Z,97355.20
2018-04-26T01:28:11.020Z,97357.83
2018-04-26T01:28:42.616Z,97360.32
2018-04-26T01:29:14.206Z,97358.20
2018-04-26T01:29:45.786Z,97365.86
2018-04-26T01:30:17.370Z,97362.89
2018-04-26T01:30:48.950Z,97360.34
2018-04-26T01:31:20.570Z,97358.22
2018-04-26T01:31:52.178Z,97361.59
2018-04-26T01:32:23.764Z,97359.88
2018-04-26T01:32:55.385Z,97360.72
2018-04-26T01:33:26.974Z,97357.30
2018-04-26T01:33:58.561Z,97372.66
2018-04-26T01:34:30.165Z,97358.59
2018-04-26T01:35:01.754Z,97365.41
2018-04-26T01:35:33.334Z,97365.84
2018-04-26T01:36:04.982Z,97367.13
2018-04-26T01:36:36.638Z,97369.27
2018-04-26T01:37:08.236Z,97365.00
2018-04-26T01:37:39.845Z,97361.58
2018-04-26T01:38:11.429Z,97360.25
2018-04-26T01:38:42.996Z,97358.97
2018-04-26T01:39:14.574Z,97348.70
2018-04-26T01:39:46.158Z,97358.44
2018-04-26T01:40:17.745Z,97359.26
2018-04-26T01:40:49.354Z,97356.68
2018-04-26T01:41:20.932Z,97358.77
2018-04-26T01:41:52.580Z,97366.84
2018-04-26T01:42:24.166Z,97361.75
2018-04-26T01:42:55.756Z,97348.48
2018-04-26T01:43:27.353Z,97365.14
2018-04-26T01:43:58.959Z,97360.45
2018-04-26T01:44:30.542Z,97360.94
2018-04-26T01:45:02.150Z,97355.33
2018-04-26T01:45:33.784Z,97360.52
2018-04-26T01:46:05.398Z,97360.12
2018-04-26T01:46:36.989Z,97361.06
2018-04-26T01:47:08.614Z,97361.91
2018-04-26T01:47:40.213Z,97369.58
2018-04-26T01:48:11.849Z,97366.63
2018-04-26T01:48:43.478Z,97367.06
2018-04-26T01:49:15.062Z,97372.23
2018-04-26T01:49:46.670Z,97370.53
2018-04-26T01:50:18.283Z,97369.25
2018-04-26T01:50:49.890Z,97372.23
2018-04-26T01:51:21.470Z,97371.83
2018-04-26T01:51:53.080Z,97373.00
2018-04-26T01:52:24.738Z,97377.63
2018-04-26T01:52:56.366Z,97372.56
2018-04-26T01:53:27.950Z,97371.70
2018-04-26T01:53:59.529Z,97378.09
2018-04-26T01:54:31.134Z,97369.16
2018-04-26T01:55:02.723Z,97371.63
2018-04-26T01:55:34.316Z,97371.74
2018-04-26T01:56:05.888Z,97370.88
2018-04-26T01:56:37.464Z,97368.72
2018-04-26T01:57:09.036Z,97370.81
2018-04-26T01:57:40.679Z,97372.14
2018-04-26T01:58:12.270Z,97376.02
2018-04-26T01:58:43.874Z,97370.86
2018-04-26T01:59:15.456Z,97376.81
2018-04-26T01:59:47.053Z,97375.56
2018-04-26T02:00:18.710Z,97369.60
2018-04-26T02:00:50.292Z,97370.90
2018-04-26T02:01:21.895Z,97368.32
2018-04-26T02:01:53.516Z,97371.74
2018-04-26T02:02:25.130Z,97360.67
2018-04-26T02:02:56.728Z,97362.81
2018-04-26T02:03:28.347Z,97364.50
2018-04-26T02:03:59.944Z,97358.97
2018-04-26T02:04:31.553Z,97359.81
2018-04-26T02:05:03.148Z,97364.09
2018-04-26T02:05:34.777Z,97361.58
2018-04-26T02:06:06.382Z,97361.59
2018-04-26T02:06:38.026Z,97366.30
2018-04-26T02:07:09.610Z,97365.03
2018-04-26T02:07:41.190Z,97364.17
2018-04-26T02:08:12.770Z,97362.95
2018-04-26T02:08:44.364Z,97365.45
2018-04-26T02:09:15.950Z,97360.34
2018-04-26T02:09:47.533Z,97368.43
2018-04-26T02:10:19.120Z,97359.04
2018-04-26T02:10:50.712Z,97363.30
2018-04-26T02:11:22.318Z,97361.59
2018-04-26T02:11:53.906Z,97354.77
2018-04-26T02:12:25.500Z,97356.87
2018-04-26T02:12:57.097Z,97357.78
2018-04-26T02:13:28.706Z,97355.64
2018-04-26T02:14:00.284Z,97353.92
2018-04-26T02:14:31.910Z,97353.92
2018-04-26T02:15:03.513Z,97350.95
2018-04-26T02:15:35.122Z,97355.64
2018-04-26T02:16:06.706Z,97358.59
2018-04-26T02:16:38.290Z,97360.32
2018-04-26T02:17:09.874Z,97359.88
2018-04-26T02:17:41.450Z,97363.31
2018-04-26T02:18:13.046Z,97351.45
2018-04-26T02:18:44.640Z,97359.92
2018-04-26T02:19:16.290Z,97359.50
2018-04-26T02:19:47.893Z,97358.71
2018-04-26T02:20:19.500Z,97356.57
2018-04-26T02:20:51.110Z,97359.98
2018-04-26T02:21:22.762Z,97360.87
2018-04-26T02:21:54.341Z,97360.45
2018-04-26T02:22:25.929Z,97356.19
2018-04-26T02:22:57.501Z,97361.27
2018-04-26T02:23:29.117Z,97355.73
2018-04-26T02:24:00.740Z,97355.31
2018-04-26T02:24:32.330Z,97352.33
2018-04-26T02:25:03.925Z,97353.59
2018-04-26T02:25:35.500Z,97355.27
2018-04-26T02:26:07.081Z,97349.01
2018-04-26T02:26:38.730Z,97345.52
2018-04-26T02:27:10.339Z,97342.96
2018-04-26T02:27:41.930Z,97346.43
2018-04-26T02:28:13.533Z,97342.63
2018-04-26T02:28:45.149Z,97354.10
2018-04-26T02:29:16.747Z,97350.27
2018-04-26T02:29:48.362Z,97347.75
2018-04-26T02:30:19.956Z,97352.77
2018-04-26T02:30:51.566Z,97355.33
2018-04-26T02:31:23.181Z,97349.03
2018-04-26T02:31:54.766Z,97349.36
2018-04-26T02:32:26.341Z,97357.03
2018-04-26T02:32:57.942Z,97353.17
2018-04-26T02:33:29.570Z,97357.41
2018-04-26T02:34:01.169Z,97353.59
2018-04-26T02:34:32.754Z,97355.73
2018-04-26T02:35:04.362Z,97354.45
2018-04-26T02:35:35.990Z,97355.33
2018-04-26T02:36:07.572Z,97354.47
2018-04-26T02:36:39.164Z,97351.91
2018-04-26T02:37:10.766Z,97355.31
2018-04-26T02:37:42.338Z,97349.78
2018-04-26T02:38:13.981Z,97357.67
2018-04-26T02:38:45.561Z,97355.22
2018-04-26T02:39:17.171Z,97353.30
2018-04-26T02:39:48.758Z,97358.32
2018-04-26T02:40:20.367Z,97351.25
2018-04-26T02:40:51.971Z,97352.11
2018-04-26T02:41:23.574Z,97358.13
2018-04-26T02:41:55.202Z,97357.28
2018-04-26T02:42:26.806Z,97357.38
2018-04-26T02:42:58.386Z,97363.41
2018-04-26T02:43:29.982Z,97354.48
2018-04-26T02:44:01.556Z,97350.33
2018-04-26T02:44:33.182Z,97358.09
2018-04-26T02:45:04.801Z,97348.80
2018-04-26T02:45:36.395Z,97351.02
2018-04-26T02:46:07.993Z,97348.50
2018-04-26T02:46:39.693Z,97347.73
2018-04-26T02:47:11.270Z,97341.09
2018-04-26T02:47:42.865Z,97349.55
2018-04-26T02:48:14.573Z,97347.07
2018-04-26T02:48:46.144Z,97349.23
2018-04-26T02:49:17.749Z,97348.87
2018-04-26T02:49:49.338Z,97355.31
2018-04-26T02:50:20.943Z,97352.39
2018-04-26T02:50:52.557Z,97350.28
2018-04-26T02:51:24.181Z,97359.73
2018-04-26T02:51:55.796Z,97354.55
2018-04-26T02:52:27.420Z,97349.76
2018-04-26T02:52:58.998Z,97356.05
2018-04-26T02:53:30.586Z,97358.89
2018-04-26T02:54:02.165Z,97359.17
2018-04-26T02:54:33.761Z,97359.02
2018-04-26T02:55:05.344Z,97361.75
2018-04-26T02:55:36.927Z,97358.70
2018-04-26T02:56:08.521Z,97362.13
2018-04-26T02:56:40.126Z,97355.41
2018-04-26T02:57:11.794Z,97357.21
2018-04-26T02:57:43.373Z,97352.64
2018-04-26T02:58:14.983Z,97354.44
2018-04-26T02:58:46.597Z,97366.05
2018-04-26T02:59:18.211Z,97362.77
2018-04-26T02:59:49.797Z,97366.78
2018-04-26T03:00:21.387Z,97365.61
2018-04-26T03:00:52.956Z,97368.27
2018-04-26T03:01:24.566Z,97373.88
2018-04-26T03:01:56.149Z,97367.48
2018-04-26T03:02:27.774Z,97365.83
2018-04-26T03:02:59.353Z,97363.36
2018-04-26T03:03:30.924Z,97366.00
2018-04-26T03:04:02.516Z,97368.21
2018-04-26T03:04:34.098Z,97367.83
2018-04-26T03:05:05.692Z,97365.74
2018-04-26T03:05:37.301Z,97365.81
2018-04-26T03:06:08.873Z,97368.84
2018-04-26T03:06:40.546Z,97377.00
2018-04-26T03:07:12.134Z,97373.63
2018-04-26T03:07:43.745Z,97375.34
2018-04-26T03:08:15.388Z,97371.58
2018-04-26T03:08:47.001Z,97370.73
2018-04-26T03:09:18.594Z,97365.64
2018-04-26T03:09:50.169Z,97373.36
2018-04-26T03:10:21.774Z,97377.63
2018-04-26T03:10:53.363Z,97372.53
2018-04-26T03:11:24.956Z,97374.30
2018-04-26T03:11:56.567Z,97371.33
2018-04-26T03:12:28.144Z,97372.63
2018-04-26T03:12:59.750Z,97377.75
2018-04-26T03:13:31.358Z,97373.97
2018-04-26T03:14:02.952Z,97373.13
2018-04-26T03:14:34.538Z,97373.56
2018-04-26T03:15:06.133Z,97370.59
2018-04-26T03:15:37.822Z,97373.58
2018-04-26T03:16:09.472Z,97370.61
2018-04-26T03:16:41.072Z,97371.94
2018-04-26T03:17:12.682Z,97369.83
2018-04-26T03:17:44.281Z,97374.95
2018-04-26T03:18:15.856Z,97370.27
2018-04-26T03:18:47.452Z,97371.66
2018-04-26T03:19:19.028Z,97377.57
2018-04-26T03:19:50.614Z,97374.59
2018-04-26T03:20:22.194Z,97378.43
2018-04-26T03:20:53.799Z,97379.30
2018-04-26T03:21:25.426Z,97380.16
2018-04-26T03:21:57.010Z,97377.66
2018-04-26T03:22:28.593Z,97385.77
2018-04-26T03:23:00.225Z,97387.89
2018-04-26T03:23:31.830Z,97377.67
2018-04-26T03:24:03.413Z,97379.81
2018-04-26T03:24:35.012Z,97380.25
2018-04-26T03:25:06.618Z,97381.55
2018-04-26T03:25:38.214Z,97380.69
2018-04-26T03:26:09.798Z,97382.40
2018-04-26T03:26:41.386Z,97378.61
2018-04-26T03:27:12.982Z,97374.36
2018-04-26T03:27:44.574Z,97373.94
2018-04-26T03:28:16.225Z,97375.66
2018-04-26T03:28:47.837Z,97372.68
2018-04-26T03:29:19.422Z,97377.42
2018-04-26T03:29:51.025Z,97368.50
2018-04-26T03:30:22.600Z,97377.45
2018-04-26T03:30:54.265Z,97374.05
2018-04-26T03:31:25.796Z,97368.95
2018-04-26T03:31:57.455Z,97371.51
2018-04-26T03:32:29.041Z,97372.83
2018-04-26T03:33:00.626Z,97378.75
2018-04-26T03:33:32.210Z,97377.96
2018-04-26T03:34:03.818Z,97377.10
2018-04-26T03:34:35.402Z,97375.05
2018-04-26T03:35:07.003Z,97381.38
2018-04-26T03:35:38.586Z,97381.80
2018-04-26T03:36:10.176Z,97375.00
2018-04-26T03:36:41.806Z,97375.00
2018-04-26T03:37:13.398Z,97381.02
2018-04-26T03:37:44.997Z,97376.77
2018-04-26T03:38:16.611Z,97377.61
2018-04-26T03:38:48.197Z,97378.05
2018-04-26T03:39:19.781Z,97367.82
2018-04-26T03:39:51.414Z,97369.54
2018-04-26T03:40:23.013Z,97370.41
2018-04-26T03:40:54.609Z,97366.14
2018-04-26T03:41:26.214Z,97371.27
2018-04-26T03:41:57.784Z,97368.30
2018-04-26T03:42:29.377Z,97368.30
2018-04-26T03:43:00.987Z,97373.41
2018-04-26T03:43:32.585Z,97367.91
2018-04-26T03:44:04.177Z,97364.95
2018-04-26T03:44:35.765Z,97361.97
2018-04-26T03:45:07.414Z,97364.55
2018-04-26T03:45:39.026Z,97361.13
2018-04-26T03:46:10.634Z,97361.13
2018-04-26T03:46:42.242Z,97360.30
2018-04-26T03:47:13.840Z,97362.84
2018-04-26T03:47:45.437Z,97358.66
2018-04-26T03:48:17.046Z,97365.45
2018-04-26T03:48:48.648Z,97358.24
2018-04-26T03:49:20.244Z,97363.32
2018-04-26T03:49:51.835Z,97365.03
2018-04-26T03:50:23.463Z,97365.89
2018-04-26T03:50:55.067Z,97364.61
2018-04-26T03:51:26.658Z,97365.05
2018-04-26T03:51:58.237Z,97371.02
2018-04-26T03:52:29.822Z,97372.72
2018-04-26T03:53:01.407Z,97369.32
2018-04-26T03:53:32.988Z,97367.19
2018-04-26T03:54:04.593Z,97368.90
2018-04-26T03:54:36.201Z,97366.81
2018-04-26T03:55:07.789Z,97374.48
2018-04-26T03:55:39.404Z,97370.65
2018-04-26T03:56:11.031Z,97369.80
2018-04-26T03:56:42.638Z,97372.36
2018-04-26T03:57:14.241Z,97368.97
2018-04-26T03:57:45.826Z,97363.86
2018-04-26T03:58:17.419Z,97367.35
2018-04-26T03:58:49.050Z,97366.85
2018-04-26T03:59:20.653Z,97362.59
2018-04-26T03:59:52.264Z,97371.13
2018-04-26T04:00:23.844Z,97368.14
2018-04-26T04:00:55.489Z,97366.87
2018-04-26T04:01:27.140Z,97363.89
2018-04-26T04:01:58.754Z,97359.28
2018-04-26T04:02:30.378Z,97364.36
2018-04-26T04:03:01.956Z,97363.94
2018-04-26T04:03:33.557Z,97368.19
2018-04-26T04:04:05.152Z,97358.84
2018-04-26T04:04:36.728Z,97372.05
2018-04-26T04:05:08.331Z,97372.05
2018-04-26T04:05:39.942Z,97366.09
2018-04-26T04:06:11.565Z,97373.76
2018-04-26T04:06:43.331Z,97372.06
2018-04-26T04:07:14.946Z,97375.89
2018-04-26T04:07:46.549Z,97376.33
2018-04-26T04:08:18.144Z,97373.39
2018-04-26T04:08:49.724Z,97376.80
2018-04-26T04:09:21.292Z,97369.99
2018-04-26T04:09:52.885Z,97374.27
2018-04-26T04:10:24.497Z,97371.70
2018-04-26T04:10:56.101Z,97367.03
2018-04-26T04:11:27.706Z,97373.84
2018-04-26T04:11:59.316Z,97372.14
2018-04-26T04:12:30.923Z,97367.45
2018-04-26T04:13:02.552Z,97371.30
2018-04-26T04:13:34.132Z,97376.84
2018-04-26T04:14:05.713Z,97369.19
2018-04-26T04:14:37.284Z,97366.63
2018-04-26T04:15:08.890Z,97364.08
2018-04-26T04:15:40.464Z,97372.16
2018-04-26T04:16:12.046Z,97362.88
2018-04-26T04:16:43.651Z,97365.02
2018-04-26T04:17:15.253Z,97366.63
2018-04-26T04:17:46.834Z,97366.63
2018-04-26T04:18:18.485Z,97366.63
2018-04-26T04:18:50.056Z,97364.97
2018-04-26T04:19:21.645Z,97361.52
2018-04-26T04:19:53.242Z,97367.91
2018-04-26T04:20:24.850Z,97366.63
2018-04-26T04:20:56.445Z,97366.63
2018-04-26T04:21:28.047Z,97366.63
2018-04-26T04:21:59.698Z,97369.23
2018-04-26T04:22:31.311Z,97366.24
2018-04-26T04:23:02.914Z,97371.73
2018-04-26T04:23:34.566Z,97367.05
2018-04-26T04:24:06.159Z,97370.88
2018-04-26T04:24:37.826Z,97367.91
2018-04-26T04:25:09.438Z,97364.55
2018-04-26T04:25:41.050Z,97345.75
2018-04-26T04:26:12.653Z,97366.24
2018-04-26T04:26:44.248Z,97360.33
2018-04-26T04:27:15.869Z,97364.97
2018-04-26T04:27:47.468Z,97363.69
2018-04-26T04:28:19.074Z,97364.14
2018-04-26T04:28:50.681Z,97362.42
2018-04-26T04:29:22.253Z,97363.28
2018-04-26T04:29:53.890Z,97362.42
2018-04-26T04:30:25.470Z,97363.27
2018-04-26T04:30:57.078Z,97360.73
2018-04-26T04:31:28.656Z,97363.70
2018-04-26T04:32:00.250Z,97358.59
2018-04-26T04:32:31.842Z,97365.82
2018-04-26T04:33:03.437Z,97366.67
2018-04-26T04:33:35.026Z,97360.73
2018-04-26T04:34:06.604Z,97367.13
2018-04-26T04:34:38.244Z,97365.44
2018-04-26T04:35:09.826Z,97372.22
2018-04-26T04:35:41.410Z,97375.22
2018-04-26T04:36:12.997Z,97371.38
2018-04-26T04:36:44.580Z,97374.36
2018-04-26T04:37:16.186Z,97376.49
2018-04-26T04:37:47.802Z,97374.36
2018-04-26T04:38:19.418Z,97370.95
2018-04-26T04:38:51.005Z,97375.64
2018-04-26T04:39:22.613Z,97375.20
2018-04-26T04:39:54.270Z,97370.95
2018-04-26T04:40:25.856Z,97379.45
2018-04-26T04:40:57.458Z,97379.02
2018-04-26T04:41:29.096Z,97373.91
2018-04-26T04:42:00.687Z,97370.02
2018-04-26T04:42:32.256Z,97369.17
2018-04-26T04:43:03.832Z,97373.42
2018-04-26T04:43:35.434Z,97372.98
2018-04-26T04:44:07.043Z,97370.01
2018-04-26T04:44:38.649Z,97375.95
2018-04-26T04:45:10.251Z,97368.27
2018-04-26T04:45:41.874Z,97374.25
2018-04-26T04:46:13.463Z,97372.92
2018-04-26T04:46:45.056Z,97366.53
2018-04-26T04:47:16.666Z,97370.34
2018-04-26T04:47:48.254Z,97373.32
2018-04-26T04:48:19.926Z,97369.05
2018-04-26T04:48:51.510Z,97369.00
2018-04-26T04:49:23.113Z,97366.01
2018-04-26T04:49:54.722Z,97371.54
2018-04-26T04:50:26.333Z,97368.55
2018-04-26T04:50:57.932Z,97368.95
2018-04-26T04:51:29.527Z,97369.39
2018-04-26T04:52:01.134Z,97363.79
2018-04-26T04:52:32.732Z,97368.90
2018-04-26T04:53:04.338Z,97375.27
2018-04-26T04:53:35.974Z,97378.67
2018-04-26T04:54:07.585Z,97374.83
2018-04-26T04:54:39.184Z,97372.70
2018-04-26T04:55:10.792Z,97377.33
2018-04-26T04:55:42.406Z,97372.70
2018-04-26T04:56:13.993Z,97376.43
2018-04-26T04:56:45.577Z,97382.35
2018-04-26T04:57:17.149Z,97378.08
2018-04-26T04:57:48.762Z,97381.05
2018-04-26T04:58:20.370Z,97387.45
2018-04-26T04:58:52.018Z,97390.84
2018-04-26T04:59:23.625Z,97384.02
2018-04-26T04:59:55.233Z,97387.46
2018-04-26T05:00:26.837Z,97384.88
2018-04-26T05:00:58.442Z,97387.84
2018-04-26T05:01:30.026Z,97391.24
2018-04-26T05:02:01.698Z,97385.71
2018-04-26T05:02:33.227Z,97384.44
2018-04-26T05:03:04.813Z,97388.27
2018-04-26T05:03:36.414Z,97386.15
2018-04-26T05:04:08.002Z,97391.27
2018-04-26T05:04:39.611Z,97388.28
2018-04-26T05:05:11.222Z,97392.95
2018-04-26T05:05:42.814Z,97388.70
2018-04-26T05:06:14.419Z,97393.83
2018-04-26T05:06:46.025Z,97393.48
2018-04-26T05:07:17.661Z,97392.13
2018-04-26T05:07:49.292Z,97398.51
2018-04-26T05:08:20.939Z,97398.94
2018-04-26T05:08:52.521Z,97394.27
2018-04-26T05:09:24.102Z,97393.46
2018-04-26T05:09:55.686Z,97398.16
2018-04-26T05:10:27.289Z,97393.90
2018-04-26T05:10:58.941Z,97397.77
2018-04-26T05:11:30.530Z,97393.56
2018-04-26T05:12:02.144Z,97391.09
2018-04-26T05:12:33.750Z,97394.03
2018-04-26T05:13:05.344Z,97398.28
2018-04-26T05:13:36.957Z,97395.31
2018-04-26T05:14:08.540Z,97392.82
2018-04-26T05:14:40.126Z,97398.80
2018-04-26T05:15:11.704Z,97395.39
2018-04-26T05:15:43.330Z,97393.74
2018-04-26T05:16:14.934Z,97395.02
2018-04-26T05:16:46.509Z,97398.45
2018-04-26T05:17:18.088Z,97398.45
2018-04-26T05:17:49.656Z,97395.49
2018-04-26T05:18:21.262Z,97393.41
2018-04-26T05:18:52.856Z,97395.13
2018-04-26T05:19:24.467Z,97391.73
2018-04-26T05:19:56.058Z,97395.55
2018-04-26T05:20:27.642Z,97393.86
2018-04-26T05:20:59.226Z,97388.33
2018-04-26T05:21:30.830Z,97390.90
2018-04-26T05:22:02.418Z,97385.41
2018-04-26T05:22:34.029Z,97386.27
2018-04-26T05:23:05.616Z,97392.66
2018-04-26T05:23:37.202Z,97394.78
2018-04-26T05:24:08.776Z,97393.95
2018-04-26T05:24:40.429Z,97390.12
2018-04-26T05:25:12.034Z,97389.77
2018-04-26T05:25:43.655Z,97394.39
2018-04-26T05:26:15.257Z,97398.22
2018-04-26T05:26:46.858Z,97393.58
2018-04-26T05:27:18.436Z,97391.47
2018-04-26T05:27:50.018Z,97400.41
2018-04-26T05:28:21.622Z,97391.48
2018-04-26T05:28:53.230Z,97378.23
2018-04-26T05:29:24.826Z,97397.02
2018-04-26T05:29:56.561Z,97396.59
2018-04-26T05:30:28.134Z,97398.36
2018-04-26T05:30:59.727Z,97392.36
2018-04-26T05:31:31.325Z,97397.08
2018-04-26T05:32:02.934Z,97397.08
2018-04-26T05:32:34.574Z,97398.38
2018-04-26T05:33:06.218Z,97396.25
2018-04-26T05:33:37.858Z,97400.51
2018-04-26T05:34:09.465Z,97400.51
2018-04-26T05:34:41.050Z,97400.10
2018-04-26T05:35:12.639Z,97399.24
2018-04-26T05:35:44.233Z,97403.09
2018-04-26T05:36:15.809Z,97407.39
2018-04-26T05:36:47.394Z,97405.26
2018-04-26T05:37:18.966Z,97402.28
2018-04-26T05:37:50.560Z,97410.80
2018-04-26T05:38:22.186Z,97405.27
2018-04-26T05:38:53.780Z,97408.67
2018-04-26T05:39:25.376Z,97410.83
2018-04-26T05:39:56.962Z,97407.84
2018-04-26T05:40:28.581Z,97410.83
2018-04-26T05:41:00.202Z,97404.89
2018-04-26T05:41:31.806Z,97404.08
2018-04-26T05:42:03.397Z,97408.78
2018-04-26T05:42:34.982Z,97406.65
2018-04-26T05:43:06.634Z,97396.45
2018-04-26T05:43:38.223Z,97403.69
2018-04-26T05:44:09.874Z,97400.33
2018-04-26T05:44:41.456Z,97400.77
2018-04-26T05:45:13.037Z,97403.75
2018-04-26T05:45:44.604Z,97409.30
2018-04-26T05:46:16.206Z,97400.36
2018-04-26T05:46:47.776Z,97401.22
2018-04-26T05:47:19.376Z,97397.82
2018-04-26T05:47:50.983Z,97397.41
2018-04-26T05:48:22.585Z,97402.93
2018-04-26T05:48:54.194Z,97400.08
2018-04-26T05:49:25.786Z,97406.75
2018-04-26T05:49:57.352Z,97401.23
2018-04-26T05:50:28.968Z,97396.59
2018-04-26T05:51:00.575Z,97401.23
2018-04-26T05:51:32.177Z,97400.42
2018-04-26T05:52:03.772Z,97400.86
2018-04-26T05:52:35.377Z,97401.30
2018-04-26T05:53:06.974Z,97399.16
2018-04-26T05:53:38.573Z,97396.63
2018-04-26T05:54:10.183Z,97394.14
2018-04-26T05:54:41.807Z,97397.91
2018-04-26T05:55:13.400Z,97396.64
2018-04-26T05:55:45.074Z,97402.17
2018-04-26T05:56:16.638Z,97404.72
2018-04-26T05:56:48.245Z,97401.36
2018-04-26T05:57:19.858Z,97401.75
2018-04-26T05:57:51.462Z,97397.11
2018-04-26T05:58:23.109Z,97399.66
2018-04-26T05:58:54.722Z,97403.51
2018-04-26T05:59:26.325Z,97399.27
2018-04-26T05:59:57.933Z,97404.79
2018-04-26T06:00:29.545Z,97406.06
2018-04-26T06:01:01.130Z,97404.37
2018-04-26T06:01:32.725Z,97409.48
2018-04-26T06:02:04.325Z,97411.17
2018-04-26T06:02:35.900Z,97409.05
2018-04-26T06:03:07.540Z,97412.90
2018-04-26T06:03:39.143Z,97409.48
2018-04-26T06:04:10.729Z,97413.32
2018-04-26T06:04:42.308Z,97413.74
2018-04-26T06:05:13.894Z,97410.39
2018-04-26T06:05:45.474Z,97407.84
2018-04-26T06:06:17.069Z,97413.80
2018-04-26T06:06:48.678Z,97414.23
2018-04-26T06:07:20.285Z,97411.69
2018-04-26T06:07:51.870Z,97415.52
2018-04-26T06:08:23.493Z,97412.55
2018-04-26T06:08:55.082Z,97414.26
2018-04-26T06:09:26.688Z,97407.45
2018-04-26T06:09:58.283Z,97417.67
2018-04-26T06:10:29.898Z,97414.30
2018-04-26T06:11:01.482Z,97416.81